createdAt,value
2022-11-22T00:00:41.825Z,93023.69
2022-11-22T00:03:09.623Z,93019.66
2022-11-22T00:05:37.416Z,93018.91
2022-11-22T00:08:05.563Z,93016.78
2022-11-22T00:10:33.423Z,93019.53
2022-11-22T00:13:02.534Z,93024.91
2022-11-22T00:15:30.790Z,93017.94
2022-11-22T00:17:58.592Z,93023.94
2022-11-22T00:20:26.525Z,93034.75
2022-11-22T00:22:54.345Z,93036.44
2022-11-22T00:25:22.018Z,93048.63
2022-11-22T00:27:49.682Z,93051.38
2022-11-22T00:30:19.065Z,93054.41
2022-11-22T00:32:46.872Z,93062.53
2022-11-22T00:35:14.649Z,93062.03
2022-11-22T00:37:42.438Z,93061.50
2022-11-22T00:40:11.346Z,93059.97
2022-11-22T00:42:39.128Z,93053.00
2022-11-22T00:45:07.970Z,93059.47
2022-11-22T00:47:37.074Z,93055.88
2022-11-22T00:50:05.334Z,93057.75
2022-11-22T00:52:33.254Z,93065.28
2022-11-22T00:55:01.073Z,93055.56
2022-11-22T00:57:28.910Z,93058.81
2022-11-22T00:59:57.735Z,93063.16
2022-11-22T01:02:25.449Z,93058.06
2022-11-22T01:04:54.500Z,93057.81
2022-11-22T01:07:22.239Z,93054.06
2022-11-22T01:09:49.920Z,93058.13
2022-11-22T01:12:17.592Z,93058.38
2022-11-22T01:14:45.323Z,93051.13
2022-11-22T01:17:12.997Z,93040.91
2022-11-22T01:19:40.900Z,93036.91
2022-11-22T01:22:09.976Z,93025.88
2022-11-22T01:24:37.704Z,93031.00
2022-11-22T01:27:05.594Z,93031.00
2022-11-22T01:29:33.264Z,93039.63
2022-11-22T01:32:00.892Z,93040.47
2022-11-22T01:34:28.630Z,93033.44
2022-11-22T01:36:56.355Z,93037.53
2022-11-22T01:39:25.489Z,93025.44
2022-11-22T01:41:53.230Z,93026.50
2022-11-22T01:44:22.683Z,93029.50
2022-11-22T01:46:52.634Z,93022.53
2022-11-22T01:49:25.625Z,93019.84
2022-11-22T01:51:55.268Z,93025.78
2022-11-22T01:54:26.911Z,93016.13
2022-11-22T01:56:56.486Z,93017.19
2022-11-22T01:59:26.523Z,93010.25
2022-11-22T02:01:54.696Z,92995.69
2022-11-22T02:04:23.610Z,92994.63
2022-11-22T02:06:55.020Z,93003.78
2022-11-22T02:09:23.193Z,93012.31
2022-11-22T02:11:55.273Z,93012.31
2022-11-22T02:14:27.603Z,93016.09
2022-11-22T02:16:55.464Z,93030.34
2022-11-22T02:19:30.307Z,93028.75
2022-11-22T02:22:02.861Z,93037.94
2022-11-22T02:24:34.442Z,93030.91
2022-11-22T02:27:03.858Z,93033.34
2022-11-22T02:29:32.513Z,93038.72
2022-11-22T02:32:00.424Z,93045.19
2022-11-22T02:34:28.168Z,93032.78
2022-11-22T02:36:56.177Z,93029.06
2022-11-22T02:39:28.011Z,93029.59
2022-11-22T02:41:56.744Z,93029.09
2022-11-22T02:44:26.841Z,93031.78
2022-11-22T02:46:55.974Z,93029.13
2022-11-22T02:49:25.822Z,93029.69
2022-11-22T02:51:54.317Z,93039.97
2022-11-22T02:54:22.076Z,93036.22
2022-11-22T02:56:50.027Z,93039.97
2022-11-22T02:59:17.741Z,93036.22
2022-11-22T03:01:48.318Z,93034.63
2022-11-22T03:04:25.012Z,93033.56
2022-11-22T03:06:54.218Z,93029.78
2022-11-22T03:09:22.045Z,93041.09
2022-11-22T03:11:49.895Z,93040.31
2022-11-22T03:14:17.921Z,93037.91
2022-11-22T03:16:48.568Z,93050.31
2022-11-22T03:19:16.628Z,93048.44
2022-11-22T03:21:45.514Z,93050.06
2022-11-22T03:24:13.335Z,93062.19
2022-11-22T03:26:41.207Z,93062.19
2022-11-22T03:29:09.093Z,93055.50
2022-11-22T03:31:37.196Z,93066.03
2022-11-22T03:34:06.494Z,93051.22
2022-11-22T03:36:34.189Z,93056.34
2022-11-22T03:39:01.993Z,93055.28
2022-11-22T03:41:29.834Z,93057.47
2022-11-22T03:43:57.687Z,93056.94
2022-11-22T03:46:25.464Z,93060.16
2022-11-22T03:48:53.239Z,93060.16
2022-11-22T03:51:22.587Z,93070.94
2022-11-22T03:53:50.445Z,93059.34
2022-11-22T03:56:18.249Z,93065.56
2022-11-22T03:58:46.144Z,93061.78
2022-11-22T04:01:16.750Z,93058.81
2022-11-22T04:03:44.941Z,93062.91
2022-11-22T04:06:12.851Z,93066.66
2022-11-22T04:08:42.277Z,93068.28
2022-11-22T04:11:10.223Z,93073.19
2022-11-22T04:13:55.271Z,93064.84
2022-11-22T04:16:23.026Z,93072.38
2022-11-22T04:18:50.782Z,93069.44
2022-11-22T04:21:35.542Z,93073.50
2022-11-22T04:24:23.507Z,93070.00
2022-11-22T04:26:51.394Z,93061.69
2022-11-22T04:29:20.135Z,93065.16
2022-11-22T04:32:20.599Z,93062.22
2022-11-22T04:34:48.461Z,93070.59
2022-11-22T04:37:16.130Z,93069.25
2022-11-22T04:39:45.347Z,93063.06
2022-11-22T04:42:30.657Z,93067.94
2022-11-22T04:44:58.424Z,93066.34
2022-11-22T04:47:47.564Z,93055.31
2022-11-22T04:50:35.572Z,93068.53
2022-11-22T04:53:03.544Z,93061.81
2022-11-22T04:55:32.829Z,93065.06
2022-11-22T04:58:00.805Z,93069.94
2022-11-22T05:00:29.174Z,93065.09
2022-11-22T05:02:57.026Z,93064.59
2022-11-22T05:05:24.991Z,93068.91
2022-11-22T05:07:52.727Z,93060.56
2022-11-22T05:10:26.011Z,93077.03
2022-11-22T05:12:56.053Z,93073.00
2022-11-22T05:15:23.731Z,93074.63
2022-11-22T05:17:51.371Z,93074.38
2022-11-22T05:20:19.042Z,93071.41
2022-11-22T05:23:04.263Z,93071.41
2022-11-22T05:25:32.019Z,93081.69
2022-11-22T05:28:01.392Z,93090.84
2022-11-22T16:00:31.209Z,93415.72
2022-11-22T17:22:03.090Z,93448.94
2022-11-22T17:23:00.835Z,93453.44
2022-11-22T17:25:28.560Z,93451.31
2022-11-22T17:27:56.572Z,93442.66
2022-11-22T17:30:24.585Z,93441.69
2022-11-22T17:32:52.438Z,93450.00
2022-11-22T17:35:20.605Z,93446.25
2022-11-22T17:37:54.424Z,93444.31
2022-11-22T17:40:22.334Z,93441.03
2022-11-22T17:42:50.116Z,93459.91
2022-11-22T17:45:17.862Z,93447.19
2022-11-22T17:47:45.766Z,93455.28
2022-11-22T17:50:13.487Z,93452.88
2022-11-22T17:52:41.365Z,93454.44
2022-11-22T17:55:14.408Z,93457.06
2022-11-22T17:57:42.728Z,93456.25
2022-11-22T18:14:40.835Z,93456.81
2022-11-22T18:20:48.754Z,93463.00
2022-11-22T18:23:17.014Z,93466.72
2022-11-22T18:25:48.289Z,93469.16
2022-11-22T18:28:38.738Z,93466.13
2022-11-22T18:31:09.549Z,93465.56
2022-11-22T18:33:37.441Z,93459.13
2022-11-22T18:36:49.516Z,93459.38
2022-11-22T18:38:57.059Z,93460.09
2022-11-22T18:41:24.804Z,93464.91
2022-11-22T18:43:52.538Z,93475.69
2022-11-22T18:46:21.676Z,93482.47
2022-11-22T18:48:50.150Z,93484.34
2022-11-22T18:51:18.160Z,93488.13
2022-11-22T18:53:45.936Z,93486.16
2022-11-22T18:56:16.910Z,93486.47
2022-11-22T18:58:44.973Z,93496.78
2022-11-22T19:01:13.325Z,93496.78
2022-11-22T19:03:42.518Z,93491.38
2022-11-22T19:06:13.037Z,93497.25
2022-11-22T19:08:41.348Z,93497.75
2022-11-22T19:11:09.500Z,93499.31
2022-11-22T19:13:38.672Z,93505.50
2022-11-22T19:16:07.214Z,93502.50
2022-11-22T19:18:41.300Z,93505.19
2022-11-22T19:21:13.679Z,93504.63
2022-11-22T19:23:41.996Z,93500.03
2022-11-22T19:26:11.390Z,93503.31
2022-11-22T19:28:39.201Z,93505.44
2022-11-22T19:31:08.622Z,93507.31
2022-11-22T19:33:36.456Z,93508.38
2022-11-22T19:36:06.593Z,93510.72
2022-11-22T19:38:35.785Z,93513.44
2022-11-22T19:41:08.476Z,93508.53
2022-11-22T19:43:36.370Z,93510.72
2022-11-22T19:46:04.416Z,93506.16
2022-11-22T19:48:32.735Z,93507.19
2022-11-22T19:51:00.662Z,93506.41
2022-11-22T19:53:28.394Z,93510.97
2022-11-22T19:56:03.167Z,93510.97
2022-11-22T19:58:31.236Z,93521.19
2022-11-22T20:01:05.473Z,93520.69
2022-11-22T20:03:34.367Z,93520.69
2022-11-22T20:06:02.940Z,93520.09
2022-11-22T20:08:31.128Z,93528.75
2022-11-22T20:11:04.335Z,93527.47
2022-11-22T20:13:34.538Z,93535.78
2022-11-22T20:16:06.844Z,93527.13
2022-11-22T20:18:34.518Z,93529.13
2022-11-22T20:21:02.789Z,93526.91
2022-11-22T20:23:30.719Z,93524.22
2022-11-22T20:26:03.695Z,93519.38
2022-11-22T20:28:31.471Z,93527.22
2022-11-22T20:31:06.690Z,93527.94
2022-11-22T20:33:35.175Z,93525.00
2022-11-22T20:36:04.276Z,93529.13
2022-11-22T20:38:33.768Z,93528.28
2022-11-22T20:41:03.252Z,93535.06
2022-11-22T20:43:31.647Z,93529.13
2022-11-22T20:46:03.073Z,93542.34
2022-11-22T20:48:31.613Z,93539.53
2022-11-22T20:50:59.390Z,93542.81
2022-11-22T20:53:27.264Z,93534.16
2022-11-22T20:55:55.200Z,93544.94
2022-11-22T20:58:25.970Z,93553.59
2022-11-22T21:00:53.804Z,93548.22
2022-11-22T21:03:21.601Z,93551.72
2022-11-22T21:05:52.164Z,93554.41
2022-11-22T21:08:20.206Z,93551.72
2022-11-22T21:10:47.859Z,93561.09
2022-11-22T21:13:15.597Z,93557.34
2022-11-22T21:15:44.769Z,93559.56
2022-11-22T21:18:28.115Z,93563.91
2022-11-22T21:20:55.829Z,93567.16
2022-11-22T21:23:23.531Z,93569.78
2022-11-22T21:25:51.722Z,93573.03
2022-11-22T21:28:19.528Z,93577.63
2022-11-22T21:30:53.566Z,93575.97
2022-11-22T21:33:21.259Z,93579.00
2022-11-22T21:35:49.172Z,93581.22
2022-11-22T21:38:16.828Z,93574.69
2022-11-22T21:40:51.359Z,93568.69
2022-11-22T21:43:19.004Z,93569.78
2022-11-22T21:45:48.114Z,93566.00
2022-11-22T21:48:16.168Z,93573.59
2022-11-22T21:50:43.863Z,93561.78
2022-11-22T21:53:11.682Z,93567.16
2022-11-22T21:55:39.571Z,93569.84
2022-11-22T21:58:07.825Z,93577.94
2022-11-22T22:00:35.522Z,93572.78
2022-11-22T22:03:04.716Z,93577.94
2022-11-22T22:05:32.651Z,93571.38
2022-11-22T22:08:00.427Z,93573.59
2022-11-22T22:10:28.250Z,93571.22
2022-11-22T22:12:55.916Z,93575.81
2022-11-22T22:15:23.651Z,93580.41
2022-11-22T22:17:53.494Z,93573.13
2022-11-22T22:20:22.609Z,93573.13
2022-11-22T22:22:50.512Z,93573.84
2022-11-22T22:25:18.956Z,93588.16
2022-11-22T22:27:46.632Z,93580.63
2022-11-22T22:30:15.901Z,93586.03
2022-11-22T22:32:43.632Z,93580.16
2022-11-22T22:35:11.656Z,93579.31
2022-11-22T22:37:40.722Z,93580.72
2022-11-22T22:40:09.087Z,93587.50
2022-11-22T22:42:36.786Z,93582.69
2022-11-22T22:45:04.789Z,93587.25
2022-11-22T22:47:32.630Z,93585.63
2022-11-22T22:50:00.382Z,93588.91
2022-11-22T22:52:28.048Z,93595.94
2022-11-22T22:54:57.112Z,93589.72
2022-11-22T22:57:24.797Z,93594.84
2022-11-22T22:59:53.047Z,93598.63
2022-11-22T23:02:20.737Z,93608.34
2022-11-22T23:04:48.438Z,93613.72
2022-11-22T23:07:16.312Z,93615.59
2022-11-22T23:09:44.038Z,93615.38
2022-11-22T23:12:13.146Z,93612.19
2022-11-22T23:14:41.504Z,93617.59
2022-11-22T23:17:10.244Z,93614.06
2022-11-22T23:19:38.199Z,93611.59
2022-11-22T23:22:06.260Z,93609.97
2022-11-22T23:24:34.346Z,93613.72
2022-11-22T23:27:02.155Z,93619.13
2022-11-22T23:29:31.392Z,93615.59
2022-11-22T23:31:59.214Z,93618.31
2022-11-22T23:34:27.018Z,93617.38
2022-11-22T23:36:54.868Z,93627.59
2022-11-22T23:39:22.663Z,93628.44
2022-11-22T23:41:50.311Z,93625.47
2022-11-22T23:44:17.910Z,93630.38
2022-11-22T23:46:46.978Z,93634.94
2022-11-22T23:49:14.731Z,93625.81
2022-11-22T23:51:42.347Z,93624.75
2022-11-22T23:54:11.436Z,93631.78
2022-11-22T23:56:39.093Z,93633.16
2022-11-22T23:59:06.748Z,93635.63
